sensor_id;sensor_type;location;lat;lon;timestamp;temperature;humidity
3348;DHT22;1687;49.540;8.574;2023-04-23T00:01:05;15.60;69.30
3348;DHT22;1687;49.540;8.574;2023-04-23T00:03:33;15.60;69.40
3348;DHT22;1687;49.540;8.574;2023-04-23T00:06:07;15.60;69.80
3348;DHT22;1687;49.540;8.574;2023-04-23T00:08:40;15.50;69.60
3348;DHT22;1687;49.540;8.574;2023-04-23T00:11:07;15.40;69.50
3348;DHT22;1687;49.540;8.574;2023-04-23T00:13:34;15.40;69.80
3348;DHT22;1687;49.540;8.574;2023-04-23T00:16:00;15.30;69.90
3348;DHT22;1687;49.540;8.574;2023-04-23T00:18:26;15.20;70.10
3348;DHT22;1687;49.540;8.574;2023-04-23T00:20:52;15.20;71.10
3348;DHT22;1687;49.540;8.574;2023-04-23T00:23:17;15.30;70.90
3348;DHT22;1687;49.540;8.574;2023-04-23T00:25:43;15.30;71.40
3348;DHT22;1687;49.540;8.574;2023-04-23T00:28:09;15.20;70.80
3348;DHT22;1687;49.540;8.574;2023-04-23T00:30:34;15.20;70.80
3348;DHT22;1687;49.540;8.574;2023-04-23T00:33:00;15.20;70.90
3348;DHT22;1687;49.540;8.574;2023-04-23T00:35:26;15.10;71.00
3348;DHT22;1687;49.540;8.574;2023-04-23T00:37:51;15.10;71.00
3348;DHT22;1687;49.540;8.574;2023-04-23T00:40:17;15.10;71.50
3348;DHT22;1687;49.540;8.574;2023-04-23T00:42:44;15.10;71.20
3348;DHT22;1687;49.540;8.574;2023-04-23T00:45:10;15.10;71.60
3348;DHT22;1687;49.540;8.574;2023-04-23T00:47:36;15.10;71.60
3348;DHT22;1687;49.540;8.574;2023-04-23T00:50:02;15.20;71.80
3348;DHT22;1687;49.540;8.574;2023-04-23T00:52:29;15.10;71.60
3348;DHT22;1687;49.540;8.574;2023-04-23T00:54:55;15.10;72.00
3348;DHT22;1687;49.540;8.574;2023-04-23T00:57:21;15.10;72.10
3348;DHT22;1687;49.540;8.574;2023-04-23T00:59:48;15.10;72.10
3348;DHT22;1687;49.540;8.574;2023-04-23T01:02:14;15.10;72.20
3348;DHT22;1687;49.540;8.574;2023-04-23T01:04:42;15.10;72.50
3348;DHT22;1687;49.540;8.574;2023-04-23T01:07:10;15.20;72.50
3348;DHT22;1687;49.540;8.574;2023-04-23T01:09:36;15.10;72.10
3348;DHT22;1687;49.540;8.574;2023-04-23T01:12:04;15.00;72.50
3348;DHT22;1687;49.540;8.574;2023-04-23T01:14:31;15.10;72.70
3348;DHT22;1687;49.540;8.574;2023-04-23T01:16:57;15.10;72.70
3348;DHT22;1687;49.540;8.574;2023-04-23T01:19:23;15.10;72.80
3348;DHT22;1687;49.540;8.574;2023-04-23T01:21:49;15.10;73.10
3348;DHT22;1687;49.540;8.574;2023-04-23T01:24:15;15.10;73.00
3348;DHT22;1687;49.540;8.574;2023-04-23T01:26:41;15.00;72.50
3348;DHT22;1687;49.540;8.574;2023-04-23T01:29:07;14.90;72.70
3348;DHT22;1687;49.540;8.574;2023-04-23T01:31:34;14.80;72.90
3348;DHT22;1687;49.540;8.574;2023-04-23T01:34:01;14.80;73.30
3348;DHT22;1687;49.540;8.574;2023-04-23T01:36:27;14.80;73.10
3348;DHT22;1687;49.540;8.574;2023-04-23T01:38:53;14.70;73.20
3348;DHT22;1687;49.540;8.574;2023-04-23T01:41:19;14.70;73.30
3348;DHT22;1687;49.540;8.574;2023-04-23T01:43:45;14.60;73.50
3348;DHT22;1687;49.540;8.574;2023-04-23T01:46:11;14.60;73.60
3348;DHT22;1687;49.540;8.574;2023-04-23T01:48:37;14.60;74.60
3348;DHT22;1687;49.540;8.574;2023-04-23T01:51:03;14.60;74.70
3348;DHT22;1687;49.540;8.574;2023-04-23T01:53:29;14.60;74.00
3348;DHT22;1687;49.540;8.574;2023-04-23T01:55:55;14.70;74.60
3348;DHT22;1687;49.540;8.574;2023-04-23T01:58:22;14.70;74.20
3348;DHT22;1687;49.540;8.574;2023-04-23T02:00:51;14.60;74.30
3348;DHT22;1687;49.540;8.574;2023-04-23T02:03:16;14.60;74.50
3348;DHT22;1687;49.540;8.574;2023-04-23T02:05:43;14.60;74.30
3348;DHT22;1687;49.540;8.574;2023-04-23T02:08:09;14.60;74.40
3348;DHT22;1687;49.540;8.574;2023-04-23T02:10:35;14.60;74.50
3348;DHT22;1687;49.540;8.574;2023-04-23T02:13:01;14.60;74.90
3348;DHT22;1687;49.540;8.574;2023-04-23T02:15:27;14.50;74.60
3348;DHT22;1687;49.540;8.574;2023-04-23T02:17:53;14.50;74.60
3348;DHT22;1687;49.540;8.574;2023-04-23T02:20:19;14.40;74.30
3348;DHT22;1687;49.540;8.574;2023-04-23T02:22:47;14.30;75.10
3348;DHT22;1687;49.540;8.574;2023-04-23T02:25:14;14.30;75.10
3348;DHT22;1687;49.540;8.574;2023-04-23T02:27:41;14.40;75.30
3348;DHT22;1687;49.540;8.574;2023-04-23T02:30:07;14.40;75.30
3348;DHT22;1687;49.540;8.574;2023-04-23T02:32:34;14.30;75.10
3348;DHT22;1687;49.540;8.574;2023-04-23T02:35:01;14.30;75.40
3348;DHT22;1687;49.540;8.574;2023-04-23T02:37:27;14.40;75.90
3348;DHT22;1687;49.540;8.574;2023-04-23T02:39:53;14.40;75.80
3348;DHT22;1687;49.540;8.574;2023-04-23T02:42:19;14.40;75.70
3348;DHT22;1687;49.540;8.574;2023-04-23T02:44:45;14.30;75.50
3348;DHT22;1687;49.540;8.574;2023-04-23T02:47:10;14.40;76.20
3348;DHT22;1687;49.540;8.574;2023-04-23T02:49:36;14.40;76.40
3348;DHT22;1687;49.540;8.574;2023-04-23T02:52:02;14.60;76.50
3348;DHT22;1687;49.540;8.574;2023-04-23T02:54:28;14.60;76.40
3348;DHT22;1687;49.540;8.574;2023-04-23T02:56:53;14.60;76.30
3348;DHT22;1687;49.540;8.574;2023-04-23T02:59:19;14.60;76.30
3348;DHT22;1687;49.540;8.574;2023-04-23T03:01:45;14.60;76.70
3348;DHT22;1687;49.540;8.574;2023-04-23T03:04:10;14.60;76.40
3348;DHT22;1687;49.540;8.574;2023-04-23T03:06:36;14.60;76.70
3348;DHT22;1687;49.540;8.574;2023-04-23T03:09:02;14.70;76.70
3348;DHT22;1687;49.540;8.574;2023-04-23T03:11:28;14.60;76.50
3348;DHT22;1687;49.540;8.574;2023-04-23T03:13:53;14.60;76.80
3348;DHT22;1687;49.540;8.574;2023-04-23T03:16:19;14.70;77.00
3348;DHT22;1687;49.540;8.574;2023-04-23T03:18:45;14.70;77.00
3348;DHT22;1687;49.540;8.574;2023-04-23T03:21:10;14.60;77.00
3348;DHT22;1687;49.540;8.574;2023-04-23T03:23:36;14.70;77.20
3348;DHT22;1687;49.540;8.574;2023-04-23T03:26:02;14.70;76.90
3348;DHT22;1687;49.540;8.574;2023-04-23T03:28:29;14.60;76.90
3348;DHT22;1687;49.540;8.574;2023-04-23T03:30:55;14.60;77.20
3348;DHT22;1687;49.540;8.574;2023-04-23T03:33:21;14.60;77.10
3348;DHT22;1687;49.540;8.574;2023-04-23T03:35:47;14.60;77.00
3348;DHT22;1687;49.540;8.574;2023-04-23T03:38:12;14.60;77.40
3348;DHT22;1687;49.540;8.574;2023-04-23T03:40:38;14.70;77.60
3348;DHT22;1687;49.540;8.574;2023-04-23T03:43:04;14.70;77.50
3348;DHT22;1687;49.540;8.574;2023-04-23T03:45:30;14.70;77.40
3348;DHT22;1687;49.540;8.574;2023-04-23T03:47:55;14.70;77.60
3348;DHT22;1687;49.540;8.574;2023-04-23T03:50:21;14.60;77.00
3348;DHT22;1687;49.540;8.574;2023-04-23T03:52:47;14.60;77.20
3348;DHT22;1687;49.540;8.574;2023-04-23T03:55:12;14.50;77.40
3348;DHT22;1687;49.540;8.574;2023-04-23T03:57:38;14.50;77.10
3348;DHT22;1687;49.540;8.574;2023-04-23T04:00:04;14.40;77.40
3348;DHT22;1687;49.540;8.574;2023-04-23T04:02:36;14.40;77.50
3348;DHT22;1687;49.540;8.574;2023-04-23T04:05:04;14.50;78.00
3348;DHT22;1687;49.540;8.574;2023-04-23T04:07:30;14.50;78.00
3348;DHT22;1687;49.540;8.574;2023-04-23T04:09:56;14.60;78.10
3348;DHT22;1687;49.540;8.574;2023-04-23T04:12:22;14.60;78.20
3348;DHT22;1687;49.540;8.574;2023-04-23T04:14:47;14.70;78.30
3348;DHT22;1687;49.540;8.574;2023-04-23T04:17:13;14.70;78.30
3348;DHT22;1687;49.540;8.574;2023-04-23T04:19:41;14.50;77.60
3348;DHT22;1687;49.540;8.574;2023-04-23T04:22:08;14.40;77.80
3348;DHT22;1687;49.540;8.574;2023-04-23T04:24:34;14.40;78.30
3348;DHT22;1687;49.540;8.574;2023-04-23T04:27:00;14.40;78.20
3348;DHT22;1687;49.540;8.574;2023-04-23T04:29:26;14.40;78.60
3348;DHT22;1687;49.540;8.574;2023-04-23T04:31:55;14.40;78.30
3348;DHT22;1687;49.540;8.574;2023-04-23T04:34:21;14.40;78.50
3348;DHT22;1687;49.540;8.574;2023-04-23T04:36:47;14.40;78.50
3348;DHT22;1687;49.540;8.574;2023-04-23T04:39:13;14.30;78.40
3348;DHT22;1687;49.540;8.574;2023-04-23T04:41:39;14.30;78.80
3348;DHT22;1687;49.540;8.574;2023-04-23T04:44:06;14.40;79.00
3348;DHT22;1687;49.540;8.574;2023-04-23T04:46:34;14.40;79.20
3348;DHT22;1687;49.540;8.574;2023-04-23T04:49:11;14.30;78.80
3348;DHT22;1687;49.540;8.574;2023-04-23T04:51:38;14.30;79.10
3348;DHT22;1687;49.540;8.574;2023-04-23T04:54:04;14.30;79.20
3348;DHT22;1687;49.540;8.574;2023-04-23T04:56:32;14.30;79.20
3348;DHT22;1687;49.540;8.574;2023-04-23T04:58:58;14.20;79.00
3348;DHT22;1687;49.540;8.574;2023-04-23T05:01:24;14.20;79.20
3348;DHT22;1687;49.540;8.574;2023-04-23T05:03:51;14.20;79.30
3348;DHT22;1687;49.540;8.574;2023-04-23T05:06:17;14.20;79.40
3348;DHT22;1687;49.540;8.574;2023-04-23T05:08:43;14.20;79.60
3348;DHT22;1687;49.540;8.574;2023-04-23T05:11:13;14.20;79.80
3348;DHT22;1687;49.540;8.574;2023-04-23T05:13:40;14.20;79.30
3348;DHT22;1687;49.540;8.574;2023-04-23T05:16:05;14.20;79.90
3348;DHT22;1687;49.540;8.574;2023-04-23T05:18:31;14.20;80.00
3348;DHT22;1687;49.540;8.574;2023-04-23T05:20:57;14.10;79.50
3348;DHT22;1687;49.540;8.574;2023-04-23T05:23:23;14.10;80.20
3348;DHT22;1687;49.540;8.574;2023-04-23T05:25:48;14.20;80.50
3348;DHT22;1687;49.540;8.574;2023-04-23T05:28:16;14.20;80.40
3348;DHT22;1687;49.540;8.574;2023-04-23T05:30:42;14.20;80.60
3348;DHT22;1687;49.540;8.574;2023-04-23T05:33:07;14.30;80.80
3348;DHT22;1687;49.540;8.574;2023-04-23T05:35:33;14.30;80.70
3348;DHT22;1687;49.540;8.574;2023-04-23T05:37:59;14.20;80.80
3348;DHT22;1687;49.540;8.574;2023-04-23T05:40:26;14.30;81.40
3348;DHT22;1687;49.540;8.574;2023-04-23T05:42:52;14.30;81.40
3348;DHT22;1687;49.540;8.574;2023-04-23T05:45:19;14.30;81.60
3348;DHT22;1687;49.540;8.574;2023-04-23T05:47:45;14.40;81.50
3348;DHT22;1687;49.540;8.574;2023-04-23T05:50:11;14.40;81.80
3348;DHT22;1687;49.540;8.574;2023-04-23T05:52:36;14.40;81.70
3348;DHT22;1687;49.540;8.574;2023-04-23T05:55:02;14.50;82.30
3348;DHT22;1687;49.540;8.574;2023-04-23T05:57:28;14.50;81.90
3348;DHT22;1687;49.540;8.574;2023-04-23T05:59:53;14.50;82.50
3348;DHT22;1687;49.540;8.574;2023-04-23T06:02:20;14.50;82.80
3348;DHT22;1687;49.540;8.574;2023-04-23T06:04:45;14.60;82.50
3348;DHT22;1687;49.540;8.574;2023-04-23T06:07:11;14.50;82.40
3348;DHT22;1687;49.540;8.574;2023-04-23T06:09:38;14.50;83.20
3348;DHT22;1687;49.540;8.574;2023-04-23T06:12:04;14.60;82.60
3348;DHT22;1687;49.540;8.574;2023-04-23T06:14:30;14.60;83.20
3348;DHT22;1687;49.540;8.574;2023-04-23T06:16:56;14.50;82.70
3348;DHT22;1687;49.540;8.574;2023-04-23T06:19:21;14.50;83.70
3348;DHT22;1687;49.540;8.574;2023-04-23T06:21:50;14.50;84.00
3348;DHT22;1687;49.540;8.574;2023-04-23T06:24:15;14.60;84.30
3348;DHT22;1687;49.540;8.574;2023-04-23T06:26:41;14.50;84.00
3348;DHT22;1687;49.540;8.574;2023-04-23T06:29:07;14.50;84.60
3348;DHT22;1687;49.540;8.574;2023-04-23T06:31:32;14.40;84.20
3348;DHT22;1687;49.540;8.574;2023-04-23T06:33:58;14.40;84.60
3348;DHT22;1687;49.540;8.574;2023-04-23T06:36:24;14.40;84.90
3348;DHT22;1687;49.540;8.574;2023-04-23T06:38:50;14.40;85.70
3348;DHT22;1687;49.540;8.574;2023-04-23T06:41:16;14.40;85.90
3348;DHT22;1687;49.540;8.574;2023-04-23T06:43:42;14.40;85.80
3348;DHT22;1687;49.540;8.574;2023-04-23T06:46:08;14.40;85.50
3348;DHT22;1687;49.540;8.574;2023-04-23T06:48:33;14.40;86.40
3348;DHT22;1687;49.540;8.574;2023-04-23T06:50:59;14.50;86.60
3348;DHT22;1687;49.540;8.574;2023-04-23T06:53:25;14.60;87.10
3348;DHT22;1687;49.540;8.574;2023-04-23T06:55:51;14.70;87.40
3348;DHT22;1687;49.540;8.574;2023-04-23T06:58:17;14.80;87.10
3348;DHT22;1687;49.540;8.574;2023-04-23T07:00:42;14.90;87.10
3348;DHT22;1687;49.540;8.574;2023-04-23T07:03:08;14.90;87.20
3348;DHT22;1687;49.540;8.574;2023-04-23T07:05:34;15.00;87.40
3348;DHT22;1687;49.540;8.574;2023-04-23T07:08:00;14.90;86.70
3348;DHT22;1687;49.540;8.574;2023-04-23T07:10:25;14.80;87.40
3348;DHT22;1687;49.540;8.574;2023-04-23T07:12:51;14.80;88.00
3348;DHT22;1687;49.540;8.574;2023-04-23T07:15:17;14.80;88.10
3348;DHT22;1687;49.540;8.574;2023-04-23T07:17:42;14.70;88.30
3348;DHT22;1687;49.540;8.574;2023-04-23T07:20:08;14.80;89.60
3348;DHT22;1687;49.540;8.574;2023-04-23T07:22:34;15.00;89.80
3348;DHT22;1687;49.540;8.574;2023-04-23T07:25:00;15.20;89.90
3348;DHT22;1687;49.540;8.574;2023-04-23T07:27:26;15.40;90.20
3348;DHT22;1687;49.540;8.574;2023-04-23T07:29:51;15.50;90.20
3348;DHT22;1687;49.540;8.574;2023-04-23T07:32:17;15.70;90.30
3348;DHT22;1687;49.540;8.574;2023-04-23T07:34:43;15.60;90.10
3348;DHT22;1687;49.540;8.574;2023-04-23T07:37:09;15.70;90.20
3348;DHT22;1687;49.540;8.574;2023-04-23T07:39:34;16.00;90.50
3348;DHT22;1687;49.540;8.574;2023-04-23T07:42:00;16.10;90.30
3348;DHT22;1687;49.540;8.574;2023-04-23T07:44:29;16.30;90.40
3348;DHT22;1687;49.540;8.574;2023-04-23T07:46:55;16.60;90.70
3348;DHT22;1687;49.540;8.574;2023-04-23T07:49:21;16.90;90.50
3348;DHT22;1687;49.540;8.574;2023-04-23T07:51:47;17.10;90.30
3348;DHT22;1687;49.540;8.574;2023-04-23T07:54:13;17.20;89.50
3348;DHT22;1687;49.540;8.574;2023-04-23T07:56:39;17.30;90.40
3348;DHT22;1687;49.540;8.574;2023-04-23T07:59:04;17.40;89.70
3348;DHT22;1687;49.540;8.574;2023-04-23T08:01:31;17.50;89.90
3348;DHT22;1687;49.540;8.574;2023-04-23T08:03:57;17.50;89.00
3348;DHT22;1687;49.540;8.574;2023-04-23T08:06:25;17.60;89.10
3348;DHT22;1687;49.540;8.574;2023-04-23T08:08:51;17.60;87.70
3348;DHT22;1687;49.540;8.574;2023-04-23T08:11:18;17.50;88.00
3348;DHT22;1687;49.540;8.574;2023-04-23T08:13:43;17.60;87.60
3348;DHT22;1687;49.540;8.574;2023-04-23T08:16:09;17.60;86.60
3348;DHT22;1687;49.540;8.574;2023-04-23T08:18:35;17.50;85.70
3348;DHT22;1687;49.540;8.574;2023-04-23T08:21:01;17.50;87.10
3348;DHT22;1687;49.540;8.574;2023-04-23T08:23:26;17.70;86.60
3348;DHT22;1687;49.540;8.574;2023-04-23T08:25:52;17.70;85.30
3348;DHT22;1687;49.540;8.574;2023-04-23T08:28:18;17.70;85.10
3348;DHT22;1687;49.540;8.574;2023-04-23T08:30:45;17.70;84.40
3348;DHT22;1687;49.540;8.574;2023-04-23T08:33:10;17.70;84.20
3348;DHT22;1687;49.540;8.574;2023-04-23T08:35:36;17.70;83.50
3348;DHT22;1687;49.540;8.574;2023-04-23T08:38:02;17.60;83.80
3348;DHT22;1687;49.540;8.574;2023-04-23T08:40:30;17.70;82.90
3348;DHT22;1687;49.540;8.574;2023-04-23T08:43:08;17.70;82.90
3348;DHT22;1687;49.540;8.574;2023-04-23T08:45:38;17.80;83.10
3348;DHT22;1687;49.540;8.574;2023-04-23T08:48:06;17.90;82.70
3348;DHT22;1687;49.540;8.574;2023-04-23T08:50:32;18.00;82.30
3348;DHT22;1687;49.540;8.574;2023-04-23T08:52:58;18.00;81.80
3348;DHT22;1687;49.540;8.574;2023-04-23T08:55:24;17.90;81.20
3348;DHT22;1687;49.540;8.574;2023-04-23T08:57:50;17.90;80.90
3348;DHT22;1687;49.540;8.574;2023-04-23T09:00:20;17.80;80.20
3348;DHT22;1687;49.540;8.574;2023-04-23T09:02:50;17.90;80.50
3348;DHT22;1687;49.540;8.574;2023-04-23T09:05:16;18.10;81.20
3348;DHT22;1687;49.540;8.574;2023-04-23T09:07:41;18.20;80.00
3348;DHT22;1687;49.540;8.574;2023-04-23T09:10:09;18.10;79.60
3348;DHT22;1687;49.540;8.574;2023-04-23T09:12:38;18.20;80.10
3348;DHT22;1687;49.540;8.574;2023-04-23T09:15:06;18.30;79.30
3348;DHT22;1687;49.540;8.574;2023-04-23T09:17:40;18.50;79.40
3348;DHT22;1687;49.540;8.574;2023-04-23T09:20:08;18.80;79.50
3348;DHT22;1687;49.540;8.574;2023-04-23T09:22:46;19.00;78.50
3348;DHT22;1687;49.540;8.574;2023-04-23T09:25:18;19.00;78.90
3348;DHT22;1687;49.540;8.574;2023-04-23T09:27:46;19.10;77.50
3348;DHT22;1687;49.540;8.574;2023-04-23T09:30:14;19.30;78.10
3348;DHT22;1687;49.540;8.574;2023-04-23T09:32:41;19.40;77.20
3348;DHT22;1687;49.540;8.574;2023-04-23T09:35:13;19.40;76.50
3348;DHT22;1687;49.540;8.574;2023-04-23T09:37:41;19.50;76.70
3348;DHT22;1687;49.540;8.574;2023-04-23T09:40:12;19.70;76.40
3348;DHT22;1687;49.540;8.574;2023-04-23T09:42:39;19.80;75.70
3348;DHT22;1687;49.540;8.574;2023-04-23T09:45:06;19.70;75.10
3348;DHT22;1687;49.540;8.574;2023-04-23T09:47:34;19.70;74.60
3348;DHT22;1687;49.540;8.574;2023-04-23T09:50:03;19.60;74.10
3348;DHT22;1687;49.540;8.574;2023-04-23T09:52:30;19.60;73.70
3348;DHT22;1687;49.540;8.574;2023-04-23T09:55:00;19.60;73.90
3348;DHT22;1687;49.540;8.574;2023-04-23T09:57:26;19.60;73.20
3348;DHT22;1687;49.540;8.574;2023-04-23T09:59:55;19.70;73.20
3348;DHT22;1687;49.540;8.574;2023-04-23T10:02:26;19.70;72.50
3348;DHT22;1687;49.540;8.574;2023-04-23T10:04:53;19.80;72.70
3348;DHT22;1687;49.540;8.574;2023-04-23T10:07:19;19.80;72.10
3348;DHT22;1687;49.540;8.574;2023-04-23T10:09:45;19.90;72.20
3348;DHT22;1687;49.540;8.574;2023-04-23T10:12:12;20.00;71.60
3348;DHT22;1687;49.540;8.574;2023-04-23T10:14:40;20.00;71.30
3348;DHT22;1687;49.540;8.574;2023-04-23T10:17:08;20.00;71.00
3348;DHT22;1687;49.540;8.574;2023-04-23T10:19:36;20.10;70.80
3348;DHT22;1687;49.540;8.574;2023-04-23T10:22:07;20.10;71.10
3348;DHT22;1687;49.540;8.574;2023-04-23T10:24:38;20.30;70.50
3348;DHT22;1687;49.540;8.574;2023-04-23T10:27:10;20.30;70.30
3348;DHT22;1687;49.540;8.574;2023-04-23T10:29:37;20.50;70.20
3348;DHT22;1687;49.540;8.574;2023-04-23T10:32:04;20.50;69.70
3348;DHT22;1687;49.540;8.574;2023-04-23T10:34:31;20.50;69.40
3348;DHT22;1687;49.540;8.574;2023-04-23T10:36:59;20.50;69.10
3348;DHT22;1687;49.540;8.574;2023-04-23T10:39:29;20.60;69.20
3348;DHT22;1687;49.540;8.574;2023-04-23T10:42:01;20.70;68.70
3348;DHT22;1687;49.540;8.574;2023-04-23T10:44:38;20.70;68.30
3348;DHT22;1687;49.540;8.574;2023-04-23T10:47:14;20.60;67.90
3348;DHT22;1687;49.540;8.574;2023-04-23T10:49:41;20.60;67.70
3348;DHT22;1687;49.540;8.574;2023-04-23T10:52:10;20.40;66.80
3348;DHT22;1687;49.540;8.574;2023-04-23T10:55:02;20.50;67.40
3348;DHT22;1687;49.540;8.574;2023-04-23T10:57:27;20.60;67.00
3348;DHT22;1687;49.540;8.574;2023-04-23T10:59:54;20.80;67.10
3348;DHT22;1687;49.540;8.574;2023-04-23T11:02:23;20.80;66.70
3348;DHT22;1687;49.540;8.574;2023-04-23T11:04:58;21.00;66.60
3348;DHT22;1687;49.540;8.574;2023-04-23T11:07:31;21.10;66.00
3348;DHT22;1687;49.540;8.574;2023-04-23T11:10:11;21.20;66.30
3348;DHT22;1687;49.540;8.574;2023-04-23T11:12:39;21.30;65.80
3348;DHT22;1687;49.540;8.574;2023-04-23T11:15:16;21.30;65.70
3348;DHT22;1687;49.540;8.574;2023-04-23T11:20:19;21.40;64.90
3348;DHT22;1687;49.540;8.574;2023-04-23T11:22:47;21.40;64.70
3348;DHT22;1687;49.540;8.574;2023-04-23T11:25:18;21.30;64.00
3348;DHT22;1687;49.540;8.574;2023-04-23T11:27:46;21.20;63.50
3348;DHT22;1687;49.540;8.574;2023-04-23T11:30:18;21.20;63.30
3348;DHT22;1687;49.540;8.574;2023-04-23T11:32:48;21.30;63.40
3348;DHT22;1687;49.540;8.574;2023-04-23T11:35:15;21.20;62.40
3348;DHT22;1687;49.540;8.574;2023-04-23T11:37:43;21.30;62.70
3348;DHT22;1687;49.540;8.574;2023-04-23T11:40:11;21.30;61.90
3348;DHT22;1687;49.540;8.574;2023-04-23T11:42:42;21.40;62.20
3348;DHT22;1687;49.540;8.574;2023-04-23T11:45:16;21.50;61.90
3348;DHT22;1687;49.540;8.574;2023-04-23T11:47:43;21.50;61.70
3348;DHT22;1687;49.540;8.574;2023-04-23T11:50:15;21.80;61.80
3348;DHT22;1687;49.540;8.574;2023-04-23T11:52:43;22.10;61.60
3348;DHT22;1687;49.540;8.574;2023-04-23T11:55:09;22.20;61.10
3348;DHT22;1687;49.540;8.574;2023-04-23T11:57:42;22.00;60.20
3348;DHT22;1687;49.540;8.574;2023-04-23T12:00:16;22.00;60.10
3348;DHT22;1687;49.540;8.574;2023-04-23T12:02:57;21.90;60.80
3348;DHT22;1687;49.540;8.574;2023-04-23T12:05:27;22.10;60.00
3348;DHT22;1687;49.540;8.574;2023-04-23T12:08:01;22.10;59.60
3348;DHT22;1687;49.540;8.574;2023-04-23T12:10:31;22.10;59.30
3348;DHT22;1687;49.540;8.574;2023-04-23T12:12:57;22.00;59.10
3348;DHT22;1687;49.540;8.574;2023-04-23T12:15:23;21.90;58.80
3348;DHT22;1687;49.540;8.574;2023-04-23T12:17:49;21.80;58.70
3348;DHT22;1687;49.540;8.574;2023-04-23T12:20:18;21.80;58.60
3348;DHT22;1687;49.540;8.574;2023-04-23T12:22:44;21.80;58.60
3348;DHT22;1687;49.540;8.574;2023-04-23T12:25:10;21.70;58.30
3348;DHT22;1687;49.540;8.574;2023-04-23T12:27:40;21.60;58.10
3348;DHT22;1687;49.540;8.574;2023-04-23T12:30:07;21.50;57.70
3348;DHT22;1687;49.540;8.574;2023-04-23T12:32:33;21.50;57.90
3348;DHT22;1687;49.540;8.574;2023-04-23T12:34:59;21.50;57.70
3348;DHT22;1687;49.540;8.574;2023-04-23T12:37:29;21.60;57.50
3348;DHT22;1687;49.540;8.574;2023-04-23T12:39:56;21.60;57.70
3348;DHT22;1687;49.540;8.574;2023-04-23T12:42:23;21.70;57.50
3348;DHT22;1687;49.540;8.574;2023-04-23T12:44:50;21.80;57.30
3348;DHT22;1687;49.540;8.574;2023-04-23T12:47:16;21.80;57.30
3348;DHT22;1687;49.540;8.574;2023-04-23T12:49:44;21.90;57.20
3348;DHT22;1687;49.540;8.574;2023-04-23T12:52:10;21.80;56.80
3348;DHT22;1687;49.540;8.574;2023-04-23T12:54:38;21.80;56.90
3348;DHT22;1687;49.540;8.574;2023-04-23T12:57:05;22.00;56.90
3348;DHT22;1687;49.540;8.574;2023-04-23T12:59:32;22.10;56.80
3348;DHT22;1687;49.540;8.574;2023-04-23T13:01:59;22.20;57.10
3348;DHT22;1687;49.540;8.574;2023-04-23T13:04:29;22.20;56.10
3348;DHT22;1687;49.540;8.574;2023-04-23T13:06:55;22.20;56.00
3348;DHT22;1687;49.540;8.574;2023-04-23T13:09:21;22.20;56.10
3348;DHT22;1687;49.540;8.574;2023-04-23T13:11:49;22.40;55.90
3348;DHT22;1687;49.540;8.574;2023-04-23T13:14:15;22.40;55.60
3348;DHT22;1687;49.540;8.574;2023-04-23T13:16:42;22.40;55.50
3348;DHT22;1687;49.540;8.574;2023-04-23T13:19:07;22.30;55.00
3348;DHT22;1687;49.540;8.574;2023-04-23T13:21:33;22.20;54.90
3348;DHT22;1687;49.540;8.574;2023-04-23T13:23:59;22.30;55.00
3348;DHT22;1687;49.540;8.574;2023-04-23T13:26:25;22.40;55.00
3348;DHT22;1687;49.540;8.574;2023-04-23T13:28:56;22.70;55.10
3348;DHT22;1687;49.540;8.574;2023-04-23T13:31:22;23.10;55.00
3348;DHT22;1687;49.540;8.574;2023-04-23T13:33:48;23.20;55.30
3348;DHT22;1687;49.540;8.574;2023-04-23T13:36:13;23.40;54.80
3348;DHT22;1687;49.540;8.574;2023-04-23T13:38:39;23.30;54.10
3348;DHT22;1687;49.540;8.574;2023-04-23T13:41:05;23.20;54.00
3348;DHT22;1687;49.540;8.574;2023-04-23T13:43:31;23.10;53.70
3348;DHT22;1687;49.540;8.574;2023-04-23T13:45:57;23.20;53.60
3348;DHT22;1687;49.540;8.574;2023-04-23T13:48:23;23.40;53.70
3348;DHT22;1687;49.540;8.574;2023-04-23T13:50:53;23.60;53.40
3348;DHT22;1687;49.540;8.574;2023-04-23T13:53:19;23.90;53.10
3348;DHT22;1687;49.540;8.574;2023-04-23T13:55:45;24.20;53.30
3348;DHT22;1687;49.540;8.574;2023-04-23T13:58:11;24.70;53.10
3348;DHT22;1687;49.540;8.574;2023-04-23T14:00:37;25.00;52.80
3348;DHT22;1687;49.540;8.574;2023-04-23T14:03:02;25.00;52.30
3348;DHT22;1687;49.540;8.574;2023-04-23T14:05:29;25.20;52.50
3348;DHT22;1687;49.540;8.574;2023-04-23T14:07:55;25.30;52.30
3348;DHT22;1687;49.540;8.574;2023-04-23T14:10:21;25.60;52.50
3348;DHT22;1687;49.540;8.574;2023-04-23T14:12:48;26.20;52.90
3348;DHT22;1687;49.540;8.574;2023-04-23T14:15:14;26.60;52.40
3348;DHT22;1687;49.540;8.574;2023-04-23T14:17:39;26.70;52.30
3348;DHT22;1687;49.540;8.574;2023-04-23T14:20:07;26.70;52.10
3348;DHT22;1687;49.540;8.574;2023-04-23T14:22:33;27.00;52.30
3348;DHT22;1687;49.540;8.574;2023-04-23T14:25:07;27.00;51.60
3348;DHT22;1687;49.540;8.574;2023-04-23T14:27:39;27.30;51.90
3348;DHT22;1687;49.540;8.574;2023-04-23T14:30:18;27.90;51.80
3348;DHT22;1687;49.540;8.574;2023-04-23T14:32:45;27.90;51.20
3348;DHT22;1687;49.540;8.574;2023-04-23T14:35:12;27.50;51.00
3348;DHT22;1687;49.540;8.574;2023-04-23T14:37:39;27.20;50.70
3348;DHT22;1687;49.540;8.574;2023-04-23T14:40:13;26.90;50.70
3348;DHT22;1687;49.540;8.574;2023-04-23T14:42:45;26.70;50.80
3348;DHT22;1687;49.540;8.574;2023-04-23T14:45:11;26.40;50.60
3348;DHT22;1687;49.540;8.574;2023-04-23T14:47:38;26.30;50.50
3348;DHT22;1687;49.540;8.574;2023-04-23T14:50:05;26.00;50.30
3348;DHT22;1687;49.540;8.574;2023-04-23T14:52:31;25.50;50.00
3348;DHT22;1687;49.540;8.574;2023-04-23T14:54:57;25.10;50.10
3348;DHT22;1687;49.540;8.574;2023-04-23T14:57:22;24.60;49.90
3348;DHT22;1687;49.540;8.574;2023-04-23T14:59:48;24.40;50.50
3348;DHT22;1687;49.540;8.574;2023-04-23T15:02:14;24.40;50.50
3348;DHT22;1687;49.540;8.574;2023-04-23T15:04:39;24.30;50.40
3348;DHT22;1687;49.540;8.574;2023-04-23T15:07:05;24.10;50.10
3348;DHT22;1687;49.540;8.574;2023-04-23T15:09:31;23.80;50.20
3348;DHT22;1687;49.540;8.574;2023-04-23T15:11:57;23.70;50.50
3348;DHT22;1687;49.540;8.574;2023-04-23T15:14:36;23.60;50.60
3348;DHT22;1687;49.540;8.574;2023-04-23T15:17:01;23.60;50.60
3348;DHT22;1687;49.540;8.574;2023-04-23T15:19:27;23.50;50.60
3348;DHT22;1687;49.540;8.574;2023-04-23T15:21:55;23.40;50.70
3348;DHT22;1687;49.540;8.574;2023-04-23T15:24:20;23.30;50.80
3348;DHT22;1687;49.540;8.574;2023-04-23T15:26:47;23.10;50.70
3348;DHT22;1687;49.540;8.574;2023-04-23T15:29:13;23.00;50.70
3348;DHT22;1687;49.540;8.574;2023-04-23T15:31:40;22.80;50.70
3348;DHT22;1687;49.540;8.574;2023-04-23T15:34:06;22.80;50.90
3348;DHT22;1687;49.540;8.574;2023-04-23T15:36:33;22.60;50.90
3348;DHT22;1687;49.540;8.574;2023-04-23T15:39:00;22.40;50.70
3348;DHT22;1687;49.540;8.574;2023-04-23T15:41:25;22.40;50.90
3348;DHT22;1687;49.540;8.574;2023-04-23T15:43:51;22.40;51.60
3348;DHT22;1687;49.540;8.574;2023-04-23T15:46:18;22.50;51.10
3348;DHT22;1687;49.540;8.574;2023-04-23T15:48:43;22.50;51.20
3348;DHT22;1687;49.540;8.574;2023-04-23T15:51:10;22.50;51.30
3348;DHT22;1687;49.540;8.574;2023-04-23T15:53:36;22.40;51.20
3348;DHT22;1687;49.540;8.574;2023-04-23T15:56:01;22.40;51.40
3348;DHT22;1687;49.540;8.574;2023-04-23T15:58:27;22.30;51.40
3348;DHT22;1687;49.540;8.574;2023-04-23T16:00:53;22.30;51.40
3348;DHT22;1687;49.540;8.574;2023-04-23T16:03:19;22.10;51.40